createdAt,value
2022-10-08T00:03:39.844Z,12.20
2022-10-08T00:08:45.093Z,12.49
2022-10-08T00:13:48.386Z,12.56
2022-10-08T00:18:53.091Z,12.48
2022-10-08T00:23:54.474Z,12.09
2022-10-08T00:28:58.721Z,12.48
2022-10-08T00:34:02.616Z,12.45
2022-10-08T00:39:09.456Z,12.47
2022-10-08T00:44:48.104Z,12.36
2022-10-08T00:49:53.189Z,12.40
2022-10-08T00:54:54.644Z,12.19
2022-10-08T00:59:56.385Z,12.18
2022-10-08T01:04:58.119Z,12.32
2022-10-08T01:10:24.281Z,12.19
2022-10-08T01:15:30.641Z,12.15
2022-10-08T01:20:42.813Z,12.09
2022-10-08T01:26:05.421Z,12.08
2022-10-08T01:31:11.357Z,12.08
2022-10-08T01:36:15.329Z,12.05
2022-10-08T01:41:18.758Z,12.14
2022-10-08T01:46:28.014Z,12.16
2022-10-08T01:51:34.329Z,12.01
2022-10-08T01:56:38.381Z,11.99
2022-10-08T02:01:59.761Z,12.00
2022-10-08T02:07:08.284Z,12.00
2022-10-08T02:12:11.057Z,12.02
2022-10-08T02:17:21.501Z,12.02
2022-10-08T02:22:54.270Z,11.97
2022-10-08T02:28:10.245Z,11.74
2022-10-08T02:33:15.756Z,11.87
2022-10-08T02:38:26.475Z,11.93
2022-10-08T02:43:32.039Z,11.78
2022-10-08T02:48:36.284Z,11.62
2022-10-08T02:53:40.303Z,11.72
2022-10-08T02:58:43.323Z,11.60
2022-10-08T03:03:51.104Z,11.60
2022-10-08T03:08:56.308Z,11.56
2022-10-08T03:13:59.647Z,11.48
2022-10-08T03:19:03.475Z,11.53
2022-10-08T03:24:06.587Z,11.53
2022-10-08T03:29:08.460Z,11.50
2022-10-08T03:34:09.841Z,11.44
2022-10-08T03:39:11.999Z,11.41
2022-10-08T03:44:13.363Z,11.44
2022-10-08T03:49:14.867Z,11.33
2022-10-08T03:54:16.236Z,11.43
2022-10-08T03:59:17.638Z,11.41
2022-10-08T04:04:24.550Z,11.45
2022-10-08T04:09:26.809Z,11.50
2022-10-08T04:14:28.143Z,11.35
2022-10-08T04:19:29.525Z,11.44
2022-10-08T04:24:30.897Z,11.34
2022-10-08T04:29:32.250Z,11.43
2022-10-08T04:34:33.672Z,11.40
2022-10-08T04:39:35.164Z,11.30
2022-10-08T04:44:36.510Z,11.33
2022-10-08T04:49:37.873Z,11.30
2022-10-08T04:54:39.455Z,11.28
2022-10-08T04:59:59.496Z,11.33
2022-10-08T05:05:02.395Z,11.23
2022-10-08T05:10:04.032Z,11.08
2022-10-08T05:15:05.771Z,11.04
2022-10-08T05:20:07.491Z,11.24
2022-10-08T05:25:09.247Z,11.17
2022-10-08T05:30:11.161Z,11.18
2022-10-08T05:35:12.578Z,11.03
2022-10-08T05:40:13.971Z,10.91
2022-10-08T05:45:15.414Z,11.04
2022-10-08T05:50:16.847Z,11.20
2022-10-08T05:55:18.246Z,11.03
2022-10-08T06:00:19.771Z,11.00
2022-10-08T06:05:21.829Z,11.12
2022-10-08T06:10:24.370Z,11.09
2022-10-08T06:15:25.778Z,11.01
2022-10-08T06:20:31.632Z,11.09
2022-10-08T06:25:36.527Z,11.07
2022-10-08T06:30:42.672Z,11.18
2022-10-08T06:35:44.071Z,11.16
2022-10-08T06:40:45.471Z,11.29
2022-10-08T06:45:47.023Z,10.81
2022-10-08T06:50:48.836Z,10.53
2022-10-08T06:55:55.306Z,11.41
2022-10-08T07:01:08.636Z,11.70
2022-10-08T07:06:12.122Z,11.93
2022-10-08T07:11:16.264Z,11.85
2022-10-08T07:16:21.350Z,11.84
2022-10-08T07:21:22.982Z,11.71
2022-10-08T07:26:26.959Z,11.88
2022-10-08T07:31:31.254Z,12.28
2022-10-08T07:36:33.144Z,12.39
2022-10-08T07:41:35.487Z,12.62
2022-10-08T07:46:37.825Z,12.42
2022-10-08T07:51:39.401Z,12.55
2022-10-08T07:56:41.225Z,12.67
2022-10-08T08:01:42.945Z,12.78
2022-10-08T08:06:46.558Z,13.16
2022-10-08T08:11:48.850Z,13.26
2022-10-08T08:16:50.307Z,13.10
2022-10-08T08:21:51.770Z,13.32
2022-10-08T08:26:55.566Z,13.49
2022-10-08T08:31:59.207Z,13.53
2022-10-08T08:37:00.622Z,13.55
2022-10-08T08:42:14.675Z,13.69
2022-10-08T08:48:00.278Z,13.61
2022-10-08T08:53:02.998Z,13.79
2022-10-08T08:58:31.177Z,13.84
2022-10-08T09:03:38.175Z,13.70
2022-10-08T09:08:42.067Z,13.70
2022-10-08T09:13:51.829Z,13.72
2022-10-08T09:18:53.294Z,13.86
2022-10-08T09:23:54.854Z,13.89
2022-10-08T09:28:58.749Z,13.85
2022-10-08T09:34:05.144Z,13.85
2022-10-08T09:39:17.347Z,13.88
2022-10-08T09:44:21.860Z,14.11
2022-10-08T09:49:35.246Z,14.01
2022-10-08T09:54:43.061Z,14.02
2022-10-08T09:59:53.687Z,14.11
2022-10-08T10:04:56.517Z,13.98
2022-10-08T10:09:59.893Z,14.18
2022-10-08T10:15:13.522Z,14.25
2022-10-08T10:20:29.950Z,14.29
2022-10-08T10:25:40.575Z,14.11
2022-10-08T10:30:57.599Z,14.04
2022-10-08T10:36:05.535Z,14.14
2022-10-08T10:41:35.435Z,14.26
2022-10-08T10:46:42.251Z,14.20
2022-10-08T10:52:02.378Z,14.19
2022-10-08T10:57:22.789Z,14.36
2022-10-08T11:02:31.553Z,14.29
2022-10-08T11:07:43.287Z,14.27
2022-10-08T11:12:59.099Z,14.23
2022-10-08T11:18:03.160Z,14.03
2022-10-08T11:23:20.270Z,14.23
2022-10-08T11:28:33.814Z,14.41
2022-10-08T11:33:36.664Z,14.36
2022-10-08T11:38:52.255Z,14.69
2022-10-08T11:43:55.236Z,14.48
2022-10-08T11:49:22.616Z,14.68
2022-10-08T11:54:34.598Z,14.67
2022-10-08T11:59:41.839Z,14.59
2022-10-08T12:04:43.650Z,14.82
2022-10-08T12:10:05.577Z,14.72
2022-10-08T12:15:26.875Z,14.68
2022-10-08T12:20:33.747Z,14.87
2022-10-08T12:25:39.610Z,14.62
2022-10-08T12:30:50.035Z,14.72
2022-10-08T12:36:09.703Z,14.73
2022-10-08T12:41:22.423Z,14.98
2022-10-08T12:46:36.642Z,15.09
2022-10-08T12:52:14.307Z,14.99
2022-10-08T12:57:22.655Z,14.83
2022-10-08T13:02:35.693Z,15.01
2022-10-08T13:07:37.046Z,14.97
2022-10-08T13:12:38.467Z,14.76
2022-10-08T13:17:39.820Z,14.47
2022-10-08T13:22:41.337Z,14.37
2022-10-08T13:27:42.766Z,14.32
2022-10-08T13:32:44.169Z,14.53
2022-10-08T13:37:52.293Z,14.42
2022-10-08T13:42:56.440Z,14.39
2022-10-08T13:47:57.835Z,14.23
2022-10-08T13:53:00.877Z,14.21
2022-10-08T13:58:04.399Z,14.17
2022-10-08T14:03:05.845Z,14.09
2022-10-08T14:08:14.231Z,14.11
2022-10-08T14:13:16.324Z,14.05
2022-10-08T14:18:17.707Z,14.07
2022-10-08T14:23:19.067Z,14.06
2022-10-08T14:28:20.536Z,14.08
2022-10-08T14:33:21.923Z,14.04
2022-10-08T14:38:23.361Z,14.00
2022-10-08T14:43:27.686Z,14.09
2022-10-08T14:48:29.329Z,14.06
2022-10-08T14:53:30.778Z,13.98
2022-10-08T14:58:32.122Z,13.94
2022-10-08T15:03:33.703Z,13.93
2022-10-08T15:08:35.090Z,13.97
2022-10-08T15:13:36.450Z,13.99
2022-10-08T15:18:37.842Z,13.95
2022-10-08T15:23:39.207Z,13.93
2022-10-08T15:28:41.695Z,13.88
2022-10-08T15:33:49.079Z,13.87
2022-10-08T15:39:02.142Z,13.91
2022-10-08T15:44:10.572Z,13.88
2022-10-08T15:49:12.034Z,13.86
2022-10-08T15:54:13.387Z,13.94
2022-10-08T15:59:14.835Z,13.90
2022-10-08T16:04:16.199Z,13.89
2022-10-08T16:09:19.341Z,13.93
2022-10-08T16:14:23.975Z,13.94
2022-10-08T16:19:26.825Z,13.90
2022-10-08T16:24:28.254Z,14.03
2022-10-08T16:29:29.619Z,14.08
2022-10-08T16:34:31.075Z,14.14
2022-10-08T16:39:32.444Z,14.09
2022-10-08T16:44:33.823Z,14.05
2022-10-08T16:49:36.353Z,14.03
2022-10-08T16:54:37.729Z,14.13
2022-10-08T16:59:39.180Z,14.02
2022-10-08T17:04:40.587Z,14.10
2022-10-08T17:09:42.003Z,13.88
2022-10-08T17:14:43.401Z,13.76
2022-10-08T17:19:44.796Z,13.74
2022-10-08T17:24:46.839Z,13.80
2022-10-08T17:29:48.290Z,13.81
2022-10-08T17:34:49.663Z,13.81
2022-10-08T17:39:51.024Z,13.82
2022-10-08T17:44:52.451Z,13.69
2022-10-08T17:49:53.831Z,13.73
2022-10-08T17:54:55.174Z,13.62
2022-10-08T17:59:56.702Z,13.47
2022-10-08T18:04:58.079Z,13.41
2022-10-08T18:09:59.469Z,13.44
2022-10-08T18:15:00.811Z,13.22
2022-10-08T18:20:02.198Z,13.15
2022-10-08T18:25:03.759Z,13.08
2022-10-08T18:30:05.578Z,13.04
2022-10-08T18:35:07.260Z,12.97
2022-10-08T18:40:09.103Z,12.73
2022-10-08T18:45:10.815Z,12.80
2022-10-08T18:50:12.390Z,12.79
2022-10-08T18:55:13.810Z,12.78
2022-10-08T19:00:15.222Z,12.70
2022-10-08T19:05:16.669Z,12.59
2022-10-08T19:10:18.023Z,12.56
2022-10-08T19:15:19.380Z,12.54
2022-10-08T19:20:20.759Z,12.46
2022-10-08T19:25:22.145Z,12.40
2022-10-08T19:30:26.584Z,12.26
2022-10-08T19:35:30.311Z,12.18
2022-10-08T19:40:31.831Z,12.20
2022-10-08T19:45:35.986Z,12.02
2022-10-08T19:50:37.437Z,12.09
2022-10-08T19:55:38.793Z,11.98
2022-10-08T20:00:40.201Z,11.87
2022-10-08T20:05:41.565Z,12.06
2022-10-08T20:10:43.011Z,12.13
2022-10-08T20:15:48.948Z,11.96
2022-10-08T20:21:01.019Z,11.97
2022-10-08T20:26:08.589Z,12.01
2022-10-08T20:31:17.282Z,11.78
2022-10-08T20:36:18.721Z,11.69
2022-10-08T20:41:25.477Z,11.66
2022-10-08T20:46:30.356Z,11.49
2022-10-08T20:51:32.731Z,11.44
2022-10-08T20:56:39.851Z,11.23
2022-10-08T21:01:41.834Z,11.49
2022-10-08T21:06:45.661Z,11.41
2022-10-08T21:11:47.821Z,11.47
2022-10-08T21:16:49.651Z,11.22
2022-10-08T21:21:51.272Z,11.37
2022-10-08T21:26:52.616Z,11.20
2022-10-08T21:31:54.027Z,11.09
2022-10-08T21:36:55.482Z,11.19
2022-10-08T21:41:56.840Z,11.15
2022-10-08T21:46:58.279Z,11.14
2022-10-08T21:51:59.621Z,11.09
2022-10-08T21:57:00.981Z,11.12
2022-10-08T22:02:02.462Z,11.06
2022-10-08T22:07:03.904Z,11.22
2022-10-08T22:12:05.341Z,11.18
2022-10-08T22:17:06.754Z,11.17
2022-10-08T22:22:08.114Z,10.78
2022-10-08T22:27:09.486Z,10.91
2022-10-08T22:32:10.838Z,10.84
2022-10-08T22:37:12.212Z,10.65
2022-10-08T22:42:13.590Z,10.87
2022-10-08T22:47:14.999Z,10.81
2022-10-08T22:52:16.425Z,10.85
2022-10-08T22:57:17.822Z,10.79
2022-10-08T23:02:19.340Z,10.72
2022-10-08T23:07:20.810Z,10.72
2022-10-08T23:12:22.190Z,10.69
2022-10-08T23:17:23.555Z,10.50
2022-10-08T23:22:24.914Z,10.56
2022-10-08T23:27:26.471Z,10.36
2022-10-08T23:32:27.815Z,10.29
2022-10-08T23:37:29.198Z,10.59
2022-10-08T23:42:30.579Z,10.15
2022-10-08T23:47:31.951Z,10.36
2022-10-08T23:52:33.299Z,10.42
2022-10-08T23:57:34.751Z,10.41
